createdAt,value
2023-01-25T00:01:53.913Z,96580.56
2023-01-25T00:04:24.201Z,96595.91
2023-01-25T00:06:53.391Z,96594.28
2023-01-25T00:09:23.516Z,96600.06
2023-01-25T00:11:53.874Z,96595.13
2023-01-25T00:14:23.536Z,96601.16
2023-01-25T00:16:52.484Z,96605.44
2023-01-25T00:19:21.645Z,96597.78
2023-01-25T00:21:50.880Z,96598.09
2023-01-25T00:24:20.366Z,96598.91
2023-01-25T00:26:49.646Z,96607.38
2023-01-25T00:29:19.284Z,96598.53
2023-01-25T00:32:02.823Z,96603.66
2023-01-25T00:34:51.698Z,96606.34
2023-01-25T00:37:24.327Z,96601.34
2023-01-25T00:39:53.341Z,96601.16
2023-01-25T00:42:22.691Z,96598.38
2023-01-25T00:44:51.784Z,96606.44
2023-01-25T00:47:21.863Z,96603.25
2023-01-25T00:49:51.136Z,96608.34
2023-01-25T00:52:20.209Z,96602.84
2023-01-25T00:54:49.262Z,96619.22
2023-01-25T00:57:18.185Z,96601.63
2023-01-25T00:59:48.194Z,96614.41
2023-01-25T01:02:18.398Z,96619.88
2023-01-25T01:04:47.650Z,96615.34
2023-01-25T01:07:16.717Z,96626.09
2023-01-25T01:09:52.239Z,96626.09
2023-01-25T01:12:21.074Z,96622.31
2023-01-25T01:14:49.914Z,96622.94
2023-01-25T01:17:18.817Z,96629.75
2023-01-25T01:19:49.381Z,96629.44
2023-01-25T01:22:18.321Z,96630.69
2023-01-25T01:24:50.120Z,96650.03
2023-01-25T01:27:20.429Z,96647.59
2023-01-25T01:29:49.301Z,96644.59
2023-01-25T01:32:18.139Z,96644.81
2023-01-25T01:34:47.243Z,96645.69
2023-01-25T01:37:16.134Z,96650.22
2023-01-25T01:39:45.364Z,96658.63
2023-01-25T01:42:14.187Z,96659.47
2023-01-25T01:44:54.994Z,96659.84
2023-01-25T01:47:39.287Z,96667.44
2023-01-25T01:50:21.455Z,96671.50
2023-01-25T01:52:52.555Z,96665.78
2023-01-25T01:55:24.777Z,96674.31
2023-01-25T01:58:00.390Z,96668.25
2023-01-25T02:00:35.393Z,96679.97
2023-01-25T02:03:04.811Z,96670.69
2023-01-25T02:05:57.858Z,96677.97
2023-01-25T02:08:27.671Z,96670.34
2023-01-25T02:11:01.952Z,96665.22
2023-01-25T02:13:32.465Z,96674.81
2023-01-25T02:16:02.983Z,96668.09
2023-01-25T02:18:32.623Z,96673.41
2023-01-25T02:21:02.748Z,96681.47
2023-01-25T02:23:56.119Z,96673.50
2023-01-25T02:26:25.192Z,96677.53
2023-01-25T02:29:04.949Z,96680.13
2023-01-25T02:31:34.736Z,96679.16
2023-01-25T02:34:03.771Z,96683.34
2023-01-25T02:36:35.447Z,96673.41
2023-01-25T02:39:12.877Z,96673.88
2023-01-25T02:41:44.206Z,96676.13
2023-01-25T02:44:17.404Z,96661.50
2023-01-25T02:46:46.470Z,96678.22
2023-01-25T02:49:16.978Z,96672.78
2023-01-25T02:51:49.630Z,96667.13
2023-01-25T02:54:21.078Z,96661.38
2023-01-25T02:56:50.362Z,96673.34
2023-01-25T02:59:19.667Z,96681.19
2023-01-25T03:01:53.920Z,96671.06
2023-01-25T03:04:23.187Z,96672.59
2023-01-25T03:06:52.567Z,96664.03
2023-01-25T03:09:22.161Z,96679.19
2023-01-25T03:11:52.569Z,96677.31
2023-01-25T03:14:23.883Z,96675.34
2023-01-25T03:16:52.765Z,96676.53
2023-01-25T03:19:24.773Z,96674.94
2023-01-25T03:21:53.819Z,96683.66
2023-01-25T03:24:22.754Z,96692.97
2023-01-25T03:27:11.431Z,96696.06
2023-01-25T03:29:46.634Z,96708.78
2023-01-25T03:32:19.834Z,96704.09
2023-01-25T03:34:50.064Z,96699.78
2023-01-25T03:37:20.840Z,96703.63
2023-01-25T03:39:51.024Z,96707.59
2023-01-25T03:42:22.127Z,96705.13
2023-01-25T03:44:56.214Z,96711.53
2023-01-25T03:47:25.120Z,96705.88
2023-01-25T03:49:53.983Z,96703.84
2023-01-25T03:52:25.263Z,96697.06
2023-01-25T03:54:54.420Z,96705.31
2023-01-25T03:57:23.250Z,96709.34
2023-01-25T03:59:57.619Z,96704.44
2023-01-25T04:02:28.660Z,96714.00
2023-01-25T04:04:58.357Z,96711.41
2023-01-25T04:07:28.204Z,96710.31
2023-01-25T04:09:57.050Z,96713.63
2023-01-25T04:12:25.974Z,96723.91
2023-01-25T04:14:54.948Z,96717.06
2023-01-25T04:17:25.111Z,96706.59
2023-01-25T04:20:09.007Z,96710.44
2023-01-25T04:22:41.581Z,96702.22
2023-01-25T04:25:11.868Z,96700.00
2023-01-25T04:27:46.454Z,96705.88
2023-01-25T04:30:17.995Z,96701.88
2023-01-25T04:32:48.123Z,96712.34
2023-01-25T04:35:30.956Z,96714.78
2023-01-25T04:38:01.728Z,96716.06
2023-01-25T04:40:37.725Z,96717.31
2023-01-25T04:43:08.108Z,96718.53
2023-01-25T04:45:37.584Z,96727.16
2023-01-25T04:48:14.658Z,96717.53
2023-01-25T04:50:51.527Z,96726.16
2023-01-25T04:53:23.423Z,96713.66
2023-01-25T04:55:53.446Z,96718.09
2023-01-25T04:58:23.299Z,96717.00
2023-01-25T05:00:54.345Z,96721.44
2023-01-25T05:03:25.272Z,96718.78
2023-01-25T05:05:55.900Z,96720.97
2023-01-25T05:08:29.509Z,96717.31
2023-01-25T05:11:02.618Z,96720.16
2023-01-25T05:13:39.727Z,96718.09
2023-01-25T05:16:31.104Z,96717.19
2023-01-25T05:19:00.941Z,96719.25
2023-01-25T05:21:59.469Z,96718.25
2023-01-25T05:24:42.584Z,96713.09
2023-01-25T05:27:16.108Z,96716.47
2023-01-25T05:30:08.868Z,96709.66
2023-01-25T05:32:50.800Z,96716.84
2023-01-25T05:35:19.866Z,96709.66
2023-01-25T05:37:51.323Z,96718.66
2023-01-25T05:40:25.112Z,96714.41
2023-01-25T05:43:00.613Z,96723.56
2023-01-25T05:45:31.513Z,96726.75
2023-01-25T05:48:01.506Z,96720.50
2023-01-25T05:50:31.709Z,96723.97
2023-01-25T05:53:07.450Z,96724.44
2023-01-25T05:55:37.851Z,96736.44
2023-01-25T05:58:11.336Z,96727.66
2023-01-25T06:00:42.237Z,96737.16
2023-01-25T06:03:16.483Z,96730.72
2023-01-25T06:05:47.843Z,96742.25
2023-01-25T06:08:17.181Z,96742.38
2023-01-25T06:10:49.880Z,96721.34
2023-01-25T06:13:20.108Z,96729.91
2023-01-25T06:15:54.589Z,96737.53
2023-01-25T06:18:58.619Z,96737.88
2023-01-25T06:21:39.745Z,96742.59
2023-01-25T06:24:08.951Z,96752.53
2023-01-25T06:26:37.819Z,96756.81
2023-01-25T06:29:07.849Z,96751.13
2023-01-25T06:31:37.146Z,96754.88
2023-01-25T06:34:07.115Z,96742.84
2023-01-25T06:36:36.789Z,96754.19
2023-01-25T06:39:05.976Z,96755.19
2023-01-25T06:41:35.049Z,96756.09
2023-01-25T06:44:04.738Z,96760.03
2023-01-25T06:46:34.352Z,96753.00
2023-01-25T06:49:03.559Z,96757.00
2023-01-25T06:51:32.528Z,96756.94
2023-01-25T06:54:05.129Z,96759.44
2023-01-25T06:56:34.048Z,96759.81
2023-01-25T06:59:03.247Z,96768.22
2023-01-25T07:01:34.314Z,96764.88
2023-01-25T07:04:03.431Z,96770.91
2023-01-25T07:06:34.840Z,96778.34
2023-01-25T07:09:09.595Z,96771.63
2023-01-25T07:11:38.748Z,96775.56
2023-01-25T07:14:07.906Z,96770.22
2023-01-25T07:16:39.727Z,96754.81
2023-01-25T07:19:11.603Z,96783.75
2023-01-25T07:21:40.557Z,96786.91
2023-01-25T07:24:14.107Z,96784.31
2023-01-25T07:26:43.942Z,96790.59
2023-01-25T07:29:15.587Z,96794.72
2023-01-25T07:31:45.028Z,96795.53
2023-01-25T07:34:14.450Z,96797.56
2023-01-25T07:36:44.526Z,96801.81
2023-01-25T07:39:14.291Z,96799.28
2023-01-25T07:41:43.191Z,96800.66
2023-01-25T07:44:17.418Z,96799.50
2023-01-25T07:46:49.171Z,96808.16
2023-01-25T07:49:18.164Z,96811.97
2023-01-25T07:51:47.009Z,96807.81
2023-01-25T07:54:15.939Z,96812.38
2023-01-25T07:56:45.252Z,96806.06
2023-01-25T07:59:14.958Z,96795.94
2023-01-25T08:01:44.165Z,96793.28
2023-01-25T08:04:14.117Z,96820.81
2023-01-25T08:06:46.952Z,96809.16
2023-01-25T08:09:20.578Z,96812.09
2023-01-25T08:11:50.074Z,96811.38
2023-01-25T08:14:18.964Z,96811.47
2023-01-25T08:16:48.001Z,96828.28
2023-01-25T08:19:17.037Z,96808.19
2023-01-25T08:21:45.961Z,96825.56
2023-01-25T08:24:17.224Z,96827.88
2023-01-25T08:26:46.199Z,96823.84
2023-01-25T08:29:15.263Z,96830.56
2023-01-25T08:31:47.275Z,96825.75
2023-01-25T08:34:16.364Z,96815.97
2023-01-25T08:36:45.474Z,96835.38
2023-01-25T08:39:14.384Z,96834.84
2023-01-25T08:41:43.830Z,96832.44
2023-01-25T08:44:13.271Z,96839.50
2023-01-25T08:46:42.210Z,96847.84
2023-01-25T08:49:11.498Z,96848.19
2023-01-25T08:51:40.650Z,96855.69
2023-01-25T08:54:12.592Z,96859.25
2023-01-25T08:56:42.349Z,96850.97
2023-01-25T08:59:14.704Z,96863.59
2023-01-25T09:01:45.465Z,96871.19
2023-01-25T09:04:14.697Z,96861.06
2023-01-25T09:06:43.587Z,96867.78
2023-01-25T09:09:13.864Z,96871.56
2023-01-25T09:11:42.714Z,96870.34
2023-01-25T09:14:11.727Z,96872.03
2023-01-25T09:16:40.717Z,96870.81
2023-01-25T09:19:10.881Z,96873.16
2023-01-25T09:21:40.481Z,96874.31
2023-01-25T09:24:09.776Z,96876.44
2023-01-25T09:26:50.117Z,96884.69
2023-01-25T09:29:24.479Z,96886.00
2023-01-25T09:31:53.521Z,96881.88
2023-01-25T09:34:33.834Z,96886.38
2023-01-25T09:37:02.811Z,96887.84
2023-01-25T09:39:31.645Z,96886.41
2023-01-25T09:42:16.162Z,96896.84
2023-01-25T09:45:01.369Z,96884.78
2023-01-25T09:47:48.483Z,96892.03
2023-01-25T09:50:37.361Z,96902.16
2023-01-25T09:53:15.236Z,96891.72
2023-01-25T09:55:47.442Z,96899.09
2023-01-25T09:58:23.697Z,96899.06
2023-01-25T10:01:14.427Z,96894.38
2023-01-25T10:03:48.896Z,96901.75
2023-01-25T10:06:20.232Z,96910.44
2023-01-25T10:09:15.293Z,96914.56
2023-01-25T10:11:45.502Z,96914.53
2023-01-25T10:14:19.219Z,96928.03
2023-01-25T10:16:48.066Z,96924.16
2023-01-25T10:19:23.800Z,96931.06
2023-01-25T10:22:02.847Z,96938.13
2023-01-25T10:25:16.075Z,96932.47
2023-01-25T10:28:18.408Z,96934.06
2023-01-25T10:30:56.172Z,96935.97
2023-01-25T10:33:25.299Z,96927.41
2023-01-25T10:35:56.266Z,96935.47
2023-01-25T10:38:47.794Z,96937.38
2023-01-25T10:41:41.435Z,96937.06
2023-01-25T10:44:25.102Z,96946.84
2023-01-25T10:47:15.201Z,96934.66
2023-01-25T10:49:49.081Z,96940.94
2023-01-25T10:52:21.526Z,96940.88
2023-01-25T10:55:09.227Z,96942.47
2023-01-25T10:57:43.874Z,96947.75
2023-01-25T11:00:29.251Z,96945.66
2023-01-25T11:02:59.691Z,96954.66
2023-01-25T11:05:31.094Z,96955.63
2023-01-25T11:08:21.141Z,96957.53
2023-01-25T11:10:51.133Z,96963.78
2023-01-25T11:13:46.476Z,96965.47
2023-01-25T11:16:39.811Z,96972.97
2023-01-25T11:19:38.755Z,96976.13
2023-01-25T11:22:26.610Z,96979.13
2023-01-25T11:24:55.651Z,96983.53
2023-01-25T11:27:28.531Z,96986.63
2023-01-25T11:30:10.711Z,96988.88
2023-01-25T11:32:40.698Z,96989.41
2023-01-25T11:35:33.852Z,96979.34
2023-01-25T11:38:16.195Z,96987.78
2023-01-25T11:41:09.659Z,96992.91
2023-01-25T11:43:54.916Z,96985.84
2023-01-25T11:46:33.428Z,96971.38
2023-01-25T11:49:35.924Z,96991.19
2023-01-25T11:52:31.876Z,97001.66
2023-01-25T11:55:27.494Z,97000.94
2023-01-25T11:58:19.767Z,97005.78
2023-01-25T12:01:05.285Z,97003.41
2023-01-25T12:03:43.126Z,97004.56
2023-01-25T12:06:14.793Z,97001.22
2023-01-25T12:09:21.113Z,97013.44
2023-01-25T12:12:31.164Z,97016.69
2023-01-25T12:15:03.107Z,97012.38
2023-01-25T12:18:00.896Z,97014.50
2023-01-25T12:20:40.438Z,97017.72
2023-01-25T12:23:18.437Z,97019.50
2023-01-25T12:25:50.371Z,97021.91
2023-01-25T12:28:32.194Z,97027.06
2023-01-25T12:31:48.576Z,97024.13
2023-01-25T12:34:23.521Z,97030.22
2023-01-25T12:36:52.754Z,97024.41
2023-01-25T12:39:26.783Z,97029.88
2023-01-25T12:42:32.769Z,97029.75
2023-01-25T12:45:38.855Z,97043.38
2023-01-25T12:48:13.800Z,97044.31
2023-01-25T12:50:53.112Z,97035.03
2023-01-25T12:53:27.103Z,97035.88
2023-01-25T12:55:58.637Z,97033.66
2023-01-25T12:58:39.364Z,97037.69
2023-01-25T13:01:34.346Z,97040.72
2023-01-25T13:04:18.050Z,97033.84
2023-01-25T13:07:04.441Z,97032.44
2023-01-25T13:09:45.521Z,97035.53
2023-01-25T13:12:14.539Z,97039.09
2023-01-25T13:14:43.737Z,97050.03
2023-01-25T13:17:19.835Z,97035.56
2023-01-25T13:19:48.854Z,97047.63
2023-01-25T13:22:46.568Z,97048.44
2023-01-25T13:25:18.420Z,97053.25
2023-01-25T13:27:47.452Z,97049.91
2023-01-25T13:30:25.193Z,97052.94
2023-01-25T13:32:57.281Z,97051.19
2023-01-25T13:35:54.252Z,97048.59
2023-01-25T13:38:36.485Z,97045.38
2023-01-25T13:41:23.879Z,97036.19
2023-01-25T13:44:21.093Z,97052.72
2023-01-25T13:46:50.085Z,97049.38
2023-01-25T13:49:25.498Z,97050.78
2023-01-25T13:51:55.947Z,97057.69
2023-01-25T13:54:25.268Z,97055.91
2023-01-25T13:57:13.521Z,97065.38
2023-01-25T13:59:43.198Z,97069.09
2023-01-25T14:02:21.358Z,97073.28
2023-01-25T14:04:52.495Z,97068.13
2023-01-25T14:07:30.567Z,97076.19
2023-01-25T14:10:03.018Z,97072.34
2023-01-25T14:12:42.118Z,97071.84
2023-01-25T14:15:27.934Z,97086.34
2023-01-25T14:18:19.617Z,97085.09
2023-01-25T14:20:52.034Z,97086.56
2023-01-25T14:23:29.315Z,97085.13
2023-01-25T14:26:00.148Z,97092.41
2023-01-25T14:28:30.562Z,97095.13
2023-01-25T14:31:02.565Z,97099.47
2023-01-25T14:33:45.041Z,97090.28
2023-01-25T14:36:25.267Z,97097.72
2023-01-25T14:38:55.111Z,97094.16
2023-01-25T14:41:37.194Z,97093.00
2023-01-25T14:44:12.443Z,97097.38
2023-01-25T14:46:41.842Z,97091.88
2023-01-25T14:49:16.855Z,97107.19
2023-01-25T14:51:57.656Z,97107.03
2023-01-25T14:54:30.157Z,97107.03
2023-01-25T14:57:08.113Z,97105.44
2023-01-25T14:59:40.833Z,97114.56
2023-01-25T15:02:39.561Z,97108.28
2023-01-25T15:05:30.379Z,97108.63
2023-01-25T15:08:16.604Z,97107.38
2023-01-25T15:10:56.922Z,97109.13
2023-01-25T15:13:28.780Z,97104.94
2023-01-25T15:16:04.599Z,97107.03
2023-01-25T15:18:52.703Z,97103.06
2023-01-25T15:21:25.750Z,97109.00
2023-01-25T15:24:00.790Z,97104.63
2023-01-25T15:26:32.000Z,97102.06
2023-01-25T15:29:03.609Z,97093.88
2023-01-25T15:31:34.671Z,97104.78
2023-01-25T15:34:04.231Z,97097.72
2023-01-25T15:36:34.400Z,97098.81
2023-01-25T15:39:03.270Z,97100.72
2023-01-25T15:41:32.298Z,97091.91
2023-01-25T15:44:02.239Z,97077.75
2023-01-25T15:46:51.295Z,97092.44
2023-01-25T15:49:27.230Z,97080.00
2023-01-25T15:51:56.974Z,97087.47
2023-01-25T15:54:25.900Z,97096.00
2023-01-25T15:56:59.716Z,97087.81
2023-01-25T15:59:29.431Z,97092.63
2023-01-25T16:01:59.079Z,97099.09
2023-01-25T16:04:28.318Z,97102.28
2023-01-25T16:06:59.315Z,97098.13
2023-01-25T16:09:31.461Z,97098.91
2023-01-25T16:12:02.268Z,97110.84
2023-01-25T16:14:32.083Z,97106.84
2023-01-25T16:17:06.334Z,97095.06
2023-01-25T16:19:35.506Z,97100.72
2023-01-25T16:22:04.348Z,97106.34
2023-01-25T16:24:33.362Z,97111.97
2023-01-25T16:27:02.539Z,97116.16
2023-01-25T16:29:43.020Z,97120.47
2023-01-25T16:32:13.358Z,97094.91
2023-01-25T16:34:42.324Z,97087.00
2023-01-25T16:37:19.269Z,97111.34
2023-01-25T16:39:48.333Z,97097.63
2023-01-25T16:42:17.284Z,97119.06
2023-01-25T16:44:48.123Z,97098.31
2023-01-25T16:47:16.952Z,97122.94
2023-01-25T16:49:45.867Z,97117.44
2023-01-25T16:52:14.762Z,97116.31
2023-01-25T16:54:43.629Z,97117.63
2023-01-25T16:57:20.371Z,97121.94
2023-01-25T16:59:50.158Z,97131.31
2023-01-25T17:02:19.622Z,97119.69
2023-01-25T17:04:48.979Z,97116.66
2023-01-25T17:07:17.854Z,97139.69
2023-01-25T17:09:46.649Z,97124.06
2023-01-25T17:12:15.531Z,97131.44
2023-01-25T17:14:44.561Z,97127.59
2023-01-25T17:17:13.404Z,97132.09
2023-01-25T17:19:42.275Z,97132.44
2023-01-25T17:22:11.219Z,97115.03
2023-01-25T17:24:40.281Z,97117.91
2023-01-25T17:27:09.164Z,97131.25
2023-01-25T17:29:38.327Z,97107.59
2023-01-25T17:32:07.350Z,97132.72
2023-01-25T17:34:36.147Z,97123.38
2023-01-25T17:37:05.003Z,97137.06
2023-01-25T17:39:33.932Z,97116.28
2023-01-25T17:42:02.837Z,97123.19
2023-01-25T17:44:31.950Z,97127.03
2023-01-25T17:47:01.150Z,97132.66
2023-01-25T17:49:31.239Z,97142.97
2023-01-25T17:52:00.041Z,97118.16
2023-01-25T17:54:28.958Z,97140.50
2023-01-25T17:56:57.902Z,97143.78
2023-01-25T17:59:26.771Z,97138.28
2023-01-25T18:01:56.485Z,97137.72
2023-01-25T18:04:26.096Z,97140.91
2023-01-25T18:06:54.947Z,97134.81
2023-01-25T18:09:24.425Z,97122.56
2023-01-25T18:11:53.242Z,97126.75
2023-01-25T18:14:22.140Z,97126.44
2023-01-25T18:16:51.179Z,97122.72
2023-01-25T18:19:20.167Z,97117.09
2023-01-25T18:21:48.990Z,97124.97
2023-01-25T18:24:27.797Z,97132.25
2023-01-25T18:27:09.022Z,97126.28
2023-01-25T18:29:46.158Z,97137.59
2023-01-25T18:32:17.186Z,97123.53
2023-01-25T18:34:47.435Z,97147.88
2023-01-25T18:37:21.668Z,97135.16
2023-01-25T18:39:53.556Z,97136.28
2023-01-25T18:42:24.680Z,97144.13
2023-01-25T18:44:53.922Z,97151.50
2023-01-25T18:47:23.857Z,97145.53
2023-01-25T18:49:53.902Z,97135.84
2023-01-25T18:52:23.833Z,97149.50
2023-01-25T18:54:53.848Z,97132.75
2023-01-25T18:57:22.761Z,97146.94
2023-01-25T18:59:52.066Z,97151.25
2023-01-25T19:02:24.311Z,97141.84
2023-01-25T19:04:53.463Z,97150.25
2023-01-25T19:07:22.529Z,97157.47
2023-01-25T19:09:51.531Z,97165.88
2023-01-25T19:12:20.350Z,97150.25
2023-01-25T19:14:49.338Z,97128.19
2023-01-25T19:17:18.381Z,97147.31
2023-01-25T19:19:47.212Z,97155.50
2023-01-25T19:22:16.132Z,97149.06
2023-01-25T19:24:44.944Z,97152.00
2023-01-25T19:27:13.770Z,97138.09
2023-01-25T19:29:42.626Z,97141.16
2023-01-25T19:32:11.549Z,97158.44
2023-01-25T19:34:40.703Z,97158.63
2023-01-25T19:37:09.533Z,97139.25
2023-01-25T19:39:38.453Z,97153.47
2023-01-25T19:42:07.546Z,97153.66
2023-01-25T19:44:36.400Z,97158.78
2023-01-25T19:47:05.349Z,97160.06
2023-01-25T19:49:37.336Z,97165.72
2023-01-25T19:52:06.307Z,97170.22
2023-01-25T19:54:35.136Z,97144.88
2023-01-25T19:57:04.035Z,97144.69
2023-01-25T19:59:32.844Z,97147.28
2023-01-25T20:02:02.971Z,97152.97
2023-01-25T20:04:32.563Z,97146.69
2023-01-25T20:07:01.413Z,97152.03
2023-01-25T20:09:30.251Z,97136.91
2023-01-25T20:11:59.961Z,97152.22
2023-01-25T20:14:28.828Z,97151.47
2023-01-25T20:16:57.692Z,97147.78
2023-01-25T20:19:26.640Z,97158.75
2023-01-25T20:21:55.740Z,97161.50
2023-01-25T20:24:24.723Z,97158.81
2023-01-25T20:26:53.700Z,97154.19
2023-01-25T20:29:24.480Z,97155.31
2023-01-25T20:31:54.555Z,97164.34
2023-01-25T20:34:24.808Z,97168.50
2023-01-25T20:36:53.690Z,97163.50
2023-01-25T20:39:23.711Z,97152.41
2023-01-25T20:41:54.075Z,97167.09
2023-01-25T20:44:23.076Z,97162.38
2023-01-25T20:46:52.560Z,97172.19
2023-01-25T20:49:21.564Z,97155.31
2023-01-25T20:51:50.409Z,97172.69
2023-01-25T20:54:21.215Z,97154.81
2023-01-25T20:56:51.117Z,97165.56
2023-01-25T20:59:27.715Z,97168.63
2023-01-25T21:01:57.651Z,97154.81
2023-01-25T21:04:26.822Z,97163.31
2023-01-25T21:06:55.708Z,97176.88
2023-01-25T21:09:26.816Z,97163.31
2023-01-25T21:11:55.704Z,97173.09
2023-01-25T21:14:24.483Z,97162.66
2023-01-25T21:16:53.360Z,97162.78
2023-01-25T21:19:22.207Z,97163.44
2023-01-25T21:21:51.162Z,97148.78
2023-01-25T21:24:20.067Z,97151.88
2023-01-25T21:26:49.045Z,97167.00
2023-01-25T21:29:17.935Z,97175.38
2023-01-25T21:31:46.815Z,97161.84
2023-01-25T21:34:15.735Z,97164.59
2023-01-25T21:36:44.561Z,97154.81
2023-01-25T21:39:13.390Z,97155.00
2023-01-25T21:41:42.355Z,97151.44
2023-01-25T21:44:29.927Z,97136.31
2023-01-25T21:47:28.311Z,97135.00
2023-01-25T21:50:06.132Z,97153.81
2023-01-25T21:52:37.972Z,97156.00
2023-01-25T21:55:07.883Z,97150.69
2023-01-25T21:57:36.837Z,97142.78
2023-01-25T22:00:07.119Z,97148.06
2023-01-25T22:02:36.573Z,97148.34
2023-01-25T22:05:05.642Z,97149.19
2023-01-25T22:07:34.555Z,97151.06
2023-01-25T22:10:03.906Z,97138.50
2023-01-25T22:12:32.959Z,97138.06
2023-01-25T22:15:02.411Z,97122.34
2023-01-25T22:17:31.672Z,97122.25
2023-01-25T22:20:00.661Z,97130.31
2023-01-25T22:22:31.683Z,97136.94
2023-01-25T22:25:00.422Z,97134.84
2023-01-25T22:27:54.866Z,97151.28
2023-01-25T22:30:23.787Z,97139.19
2023-01-25T22:32:52.698Z,97143.72
2023-01-25T22:35:21.802Z,97148.53
2023-01-25T22:37:50.747Z,97149.31
2023-01-25T22:40:19.611Z,97131.78
2023-01-25T22:42:48.444Z,97132.09
2023-01-25T22:45:17.312Z,97133.53
2023-01-25T22:47:46.251Z,97135.63
2023-01-25T22:50:15.131Z,97130.47
2023-01-25T22:52:44.025Z,97127.72
2023-01-25T22:55:13.140Z,97128.84
2023-01-25T22:57:42.025Z,97117.41
2023-01-25T23:00:12.705Z,97125.94
2023-01-25T23:02:42.092Z,97133.31
2023-01-25T23:05:11.006Z,97115.28
2023-01-25T23:07:39.844Z,97114.47
2023-01-25T23:10:09.614Z,97122.03
2023-01-25T23:12:38.721Z,97122.19
2023-01-25T23:15:15.904Z,97113.00
2023-01-25T23:18:03.559Z,97135.19
2023-01-25T23:20:32.410Z,97128.25
2023-01-25T23:23:01.298Z,97151.41
2023-01-25T23:25:31.584Z,97156.81
2023-01-25T23:28:00.458Z,97135.19
2023-01-25T23:30:30.016Z,97144.72
2023-01-25T23:32:59.603Z,97136.25
2023-01-25T23:35:32.408Z,97127.84
2023-01-25T23:38:04.331Z,97139.84
2023-01-25T23:40:33.160Z,97135.31
2023-01-25T23:43:01.891Z,97125.66
2023-01-25T23:45:30.786Z,97124.72
2023-01-25T23:47:59.843Z,97144.69
2023-01-25T23:50:28.956Z,97129.06
2023-01-25T23:52:57.848Z,97140.50
2023-01-25T23:55:26.768Z,97128.97
2023-01-25T23:57:55.758Z,97131.53
